Time;durP1;ratioP1;P1;durP2;ratioP2;P2;SDS_P1;SDS_P2;PMS_P1;PMS_P2;Temp;Humidity;BMP_temperature;BMP_pressure;BME280_temperature;BME280_humidity;BME280_pressure;Samples;Min_cycle;Max_cycle;Signal;HPM_P1;HPM_P2
2022/01/23 00:00:19;;;;;;;;;;;;;;;3.38;100.00;101889.94;4995672;28;20034;-73
2022/01/23 00:02:48;;;;;;;;;;;;;;;3.38;100.00;101874.97;5014716;23;1025823;-85
2022/01/23 00:05:15;;;;;;;22.48;12.70;;;;;;;3.39;100.00;101874.13;5032135;28;20040;-85
2022/01/23 00:07:41;;;;;;;21.48;12.25;;;;;;;3.38;100.00;101880.25;5015822;28;20025;-88
2022/01/23 00:10:09;;;;;;;19.90;11.38;;;;;;;3.61;100.00;101887.88;5016389;28;20099;-86
2022/01/23 00:12:43;;;;;;;21.50;11.93;;;;;;;3.52;100.00;101882.38;5011825;28;20394;-85
2022/01/23 00:17:53;;;;;;;23.08;12.98;;;;;;;3.34;100.00;101879.31;5017503;28;20084;-86
2022/01/23 00:20:19;;;;;;;24.63;13.00;;;;;;;3.30;100.00;101876.56;5015471;28;20022;-85
2022/01/23 00:22:48;;;;;;;21.13;12.38;;;;;;;3.42;100.00;101887.44;5016115;28;20022;-86
2022/01/23 00:30:43;;;;;;;29.10;14.18;;;;;;;3.35;100.00;101885.50;5019272;28;20032;-86
2022/01/23 00:33:10;;;;;;;25.02;13.65;;;;;;;3.29;100.00;101885.31;5016571;28;20026;-86
2022/01/23 00:35:38;;;;;;;29.63;14.73;;;;;;;3.29;100.00;101880.03;5016784;28;20049;-86
2022/01/23 00:38:06;;;;;;;30.33;14.80;;;;;;;3.35;100.00;101870.50;5016980;28;20037;-86
2022/01/23 00:40:34;;;;;;;28.20;14.32;;;;;;;3.34;100.00;101868.75;5014833;28;20044;-85
2022/01/23 00:43:00;;;;;;;27.55;14.75;;;;;;;3.35;100.00;101864.38;5016012;28;20030;-86
2022/01/23 00:45:35;;;;;;;28.52;14.45;;;;;;;3.30;100.00;101871.28;5014705;28;20510;-85
2022/01/23 00:48:06;;;;;;;27.77;14.02;;;;;;;3.29;100.00;101869.47;5015696;28;20117;-86
2022/01/23 00:50:40;;;;;;;27.05;14.82;;;;;;;3.46;100.00;101870.78;5014793;28;20521;-85
2022/01/23 00:53:09;;;;;;;30.83;15.05;;;;;;;3.39;100.00;101874.13;5015595;28;20030;-84
2022/01/23 00:55:36;;;;;;;30.05;15.10;;;;;;;3.30;100.00;101876.56;5015053;28;20049;-85
2022/01/23 00:58:01;;;;;;;30.40;15.63;;;;;;;3.24;100.00;101878.19;5015386;28;20018;-85
2022/01/23 01:00:27;;;;;;;29.63;15.25;;;;;;;3.31;100.00;101881.88;5015653;28;20386;-85
2022/01/23 01:02:52;;;;;;;30.13;16.30;;;;;;;3.24;100.00;101882.56;5014056;28;20072;-85
2022/01/23 01:05:18;;;;;;;37.78;17.13;;;;;;;3.26;100.00;101885.22;5014565;28;20049;-86
2022/01/23 01:07:43;;;;;;;26.88;15.50;;;;;;;3.21;100.00;101893.94;5016109;28;20029;-85
2022/01/23 01:10:16;;;;;;;31.35;16.38;;;;;;;3.21;100.00;101888.66;5014628;28;20545;-85
2022/01/23 01:12:44;;;;;;;31.40;15.57;;;;;;;3.19;100.00;101893.00;5015955;28;20018;-86
2022/01/23 01:31:40;;;;;;;;;;;;;;;3.15;100.00;101856.78;5015826;28;20105;-86
2022/01/23 01:36:46;;;;;;;28.58;14.90;;;;;;;3.15;100.00;101880.56;5015234;28;20084;-85
2022/01/23 01:39:12;;;;;;;26.90;14.70;;;;;;;3.14;100.00;101889.34;5013408;28;20034;-85
2022/01/23 01:41:39;;;;;;;28.90;13.63;;;;;;;3.17;100.00;101891.19;5013588;28;20028;-85
2022/01/23 01:44:05;;;;;;;25.30;14.02;;;;;;;3.19;100.00;101894.75;5015085;28;20108;-86
2022/01/23 01:46:31;;;;;;;25.20;14.93;;;;;;;3.19;100.00;101897.38;5014487;28;20103;-86
2022/01/23 01:48:57;;;;;;;26.63;14.32;;;;;;;3.15;100.00;101891.13;5013460;28;20140;-85
2022/01/23 01:51:24;;;;;;;27.70;14.30;;;;;;;3.16;100.00;101890.28;5013752;28;20105;-86
2022/01/23 01:53:57;;;;;;;27.67;14.55;;;;;;;3.30;100.00;101881.84;5013416;28;20112;-86
2022/01/23 01:56:22;;;;;;;28.20;14.68;;;;;;;3.19;100.00;101890.38;5014739;28;20029;-86
2022/01/23 02:09:43;;;;;;;30.02;15.32;;;;;;;3.15;100.00;101880.56;5014262;28;20061;-86
2022/01/23 02:23:28;;;;;;;38.17;17.95;;;;;;;3.07;100.00;101883.00;5013696;28;20427;-85
2022/01/23 02:50:44;;;;;;;40.17;18.35;;;;;;;3.00;100.00;101900.41;5015027;28;20091;-86
2022/01/23 02:53:34;;;;;;;38.42;17.50;;;;;;;2.98;100.00;101902.13;5014311;28;20068;-86
2022/01/23 02:56:01;;;;;;;39.38;18.80;;;;;;;2.95;100.00;101902.03;5013054;28;20018;-85
2022/01/23 02:58:35;;;;;;;33.75;17.33;;;;;;;2.97;100.00;101900.31;5013021;28;20076;-86
2022/01/23 03:01:14;;;;;;;34.58;16.85;;;;;;;2.95;100.00;101904.66;5012955;28;20129;-86
2022/01/23 03:03:44;;;;;;;33.30;16.42;;;;;;;2.94;100.00;101905.50;5013100;28;20442;-87
2022/01/23 03:11:57;;;;;;;32.13;15.43;;;;;;;2.81;100.00;101908.66;5013720;28;20414;-87
2022/01/23 03:14:22;;;;;;;28.00;14.20;;;;;;;2.71;100.00;101913.66;5014095;28;20490;-86
2022/01/23 03:25:18;;;;;;;27.67;13.73;;;;;;;2.64;100.00;101903.78;5017860;28;20033;-86
2022/01/23 03:28:34;;;;;;;;;;;;;;;2.63;100.00;101899.38;5016388;28;20040;-85
2022/01/23 03:30:39;;;;;;;21.35;11.50;;;;;;;2.67;100.00;101895.97;5008706;28;20425;-85
2022/01/23 03:33:04;;;;;;;24.63;12.43;;;;;;;2.59;100.00;101897.47;5016196;28;20040;-86
2022/01/23 03:35:30;;;;;;;23.00;12.18;;;;;;;2.58;100.00;101895.72;5015722;28;20022;-86
2022/01/23 03:37:56;;;;;;;22.45;12.85;;;;;;;2.60;100.00;101909.84;5016174;28;20422;-86
2022/01/23 03:40:22;;;;;;;23.75;12.73;;;;;;;2.63;100.00;101915.22;5017180;28;20034;-86
2022/01/23 03:42:55;;;;;;;25.02;12.88;;;;;;;2.76;100.00;101906.78;5015414;28;20125;-86
2022/01/23 03:45:54;;;;;;;23.48;12.93;;;;;;;2.81;100.00;101911.31;5015666;28;20038;-86
2022/01/23 03:50:41;;;;;;;28.48;13.90;;;;;;;2.84;100.00;101919.28;5016170;28;20029;-86
2022/01/23 03:53:07;;;;;;;27.08;13.55;;;;;;;2.71;100.00;101920.66;5016398;28;20022;-86
2022/01/23 03:55:33;;;;;;;25.83;13.48;;;;;;;2.79;100.00;101912.16;5016352;28;20025;-86
2022/01/23 03:57:58;;;;;;;27.90;13.13;;;;;;;2.77;100.00;101915.59;5015193;28;20018;-86
2022/01/23 04:00:23;;;;;;;25.52;13.10;;;;;;;2.75;100.00;101923.47;5016320;28;20029;-87
2022/01/23 04:02:50;;;;;;;26.55;12.88;;;;;;;2.85;100.00;101926.38;5015206;28;20040;-87
2022/01/23 04:05:16;;;;;;;27.60;12.55;;;;;;;2.69;100.00;101920.63;5014758;28;20063;-87
2022/01/23 04:07:42;;;;;;;24.88;12.55;;;;;;;2.67;100.00;101917.06;5014782;28;20433;-86
2022/01/23 04:10:09;;;;;;;21.95;12.43;;;;;;;2.62;100.00;101918.69;5014400;28;20522;-86
2022/01/23 04:12:45;;;;;;;24.45;13.18;;;;;;;2.56;100.00;101920.28;5015770;28;20076;-85
2022/01/23 04:20:33;;;;;;;24.65;12.45;;;;;;;2.69;100.00;101904.81;5015594;28;20395;-86
2022/01/23 04:34:11;;;;;;;23.70;13.10;;;;;;;2.82;100.00;101900.78;5016652;28;20061;-88
2022/01/23 04:48:41;;;;;;;;;;;;;;;2.73;100.00;101919.88;5016018;28;20049;-86
2022/01/23 05:06:37;;;;;;;26.33;13.82;;;;;;;2.86;100.00;101914.97;5015466;28;20065;-87
2022/01/23 05:09:05;;;;;;;27.58;13.73;;;;;;;2.84;100.00;101909.63;5013919;28;20032;-87
2022/01/23 05:11:30;;;;;;;24.08;12.60;;;;;;;2.87;100.00;101920.28;5014215;28;20076;-88
2022/01/23 05:13:56;;;;;;;25.63;13.15;;;;;;;2.85;100.00;101918.44;5014823;28;20537;-87
2022/01/23 05:16:21;;;;;;;24.08;12.30;;;;;;;2.81;100.00;101930.66;5013491;28;20025;-88
2022/01/23 05:18:47;;;;;;;26.10;12.70;;;;;;;2.88;100.00;101931.75;5012405;28;20259;-88
2022/01/23 05:23:40;;;;;;;28.63;13.38;;;;;;;2.70;100.00;101938.28;5015207;28;20026;-89
2022/01/23 05:26:05;;;;;;;29.95;13.75;;;;;;;2.85;100.00;101934.28;5013292;28;20021;-86
2022/01/23 05:28:30;;;;;;;31.77;14.02;;;;;;;2.69;100.00;101928.56;5013538;28;20451;-86
2022/01/23 05:30:56;;;;;;;32.35;14.43;;;;;;;2.71;100.00;101937.41;5015146;28;20022;-87
2022/01/23 05:33:21;;;;;;;29.02;13.82;;;;;;;2.78;100.00;101931.44;5013180;28;20080;-87
2022/01/23 05:35:46;;;;;;;29.02;13.90;;;;;;;2.85;100.00;101931.66;5014673;28;20116;-87
2022/01/23 05:38:12;;;;;;;36.85;15.48;;;;;;;2.76;100.00;101927.88;5014359;28;20029;-88
2022/01/23 05:40:39;;;;;;;35.70;15.98;;;;;;;2.71;100.00;101933.88;5012885;28;20037;-87
2022/01/23 05:43:04;;;;;;;34.55;15.15;;;;;;;2.84;100.00;101930.75;5012965;28;20025;-88
2022/01/23 05:45:30;;;;;;;32.22;14.30;;;;;;;2.88;100.00;101929.09;5012183;28;20387;-88
2022/01/23 05:47:55;;;;;;;33.15;15.38;;;;;;;2.81;100.00;101929.78;5013108;28;20030;-87
2022/01/23 05:50:20;;;;;;;30.05;15.20;;;;;;;2.87;100.00;101940.50;5012752;28;20096;-87
2022/01/23 05:52:45;;;;;;;33.72;16.55;;;;;;;2.75;100.00;101946.31;5012602;28;20040;-87
2022/01/23 05:55:12;;;;;;;34.33;15.98;;;;;;;2.78;100.00;101941.13;5013317;28;20022;-87
2022/01/23 05:57:37;;;;;;;33.63;15.65;;;;;;;2.70;100.00;101950.56;5012860;28;20092;-87
2022/01/23 06:00:03;;;;;;;37.45;16.20;;;;;;;2.60;100.00;101957.31;5013972;28;20420;-87
2022/01/23 06:02:28;;;;;;;37.55;15.27;;;;;;;2.63;100.00;101957.41;5049226;22;20053;-84
2022/01/23 06:04:54;;;;;;;33.75;15.10;;;;;;;2.71;100.00;101966.41;5036492;28;20030;-84
2022/01/23 06:07:19;;;;;;;33.38;15.60;;;;;;;2.65;100.00;101960.97;5036846;28;20022;-84
2022/01/23 06:09:44;;;;;;;31.73;15.02;;;;;;;2.64;100.00;101959.19;5038061;28;20033;-85
2022/01/23 06:12:10;;;;;;;34.38;14.77;;;;;;;2.63;100.00;101967.97;5037228;28;20017;-83
2022/01/23 06:14:35;;;;;;;38.60;16.05;;;;;;;2.64;100.00;101964.44;5027460;28;20029;-84
2022/01/23 06:17:01;;;;;;;30.63;14.25;;;;;;;2.73;100.00;101963.84;5024873;28;20049;-84
2022/01/23 06:19:26;;;;;;;33.08;15.20;;;;;;;2.61;100.00;101972.25;5015233;28;20017;-84
2022/01/23 06:21:51;;;;;;;35.53;15.13;;;;;;;2.56;100.00;101965.13;5020356;28;20029;-84
2022/01/23 06:24:26;;;;;;;30.70;13.90;;;;;;;2.72;100.00;101973.50;5022873;28;20097;-85
2022/01/23 06:26:54;;;;;;;32.22;15.02;;;;;;;2.65;100.00;101976.81;5021069;28;20030;-84
2022/01/23 06:29:21;;;;;;;28.55;13.27;;;;;;;2.68;100.00;101969.88;5022752;28;20033;-85
2022/01/23 06:31:47;;;;;;;27.08;14.25;;;;;;;2.75;100.00;101973.59;5018545;28;20022;-84
2022/01/23 06:34:26;;;;;;;30.23;14.25;;;;;;;2.68;100.00;101971.63;5020394;28;20026;-84
2022/01/23 06:36:52;;;;;;;28.20;13.88;;;;;;;2.60;100.00;101973.13;5022277;28;20032;-84
2022/01/23 06:39:20;;;;;;;30.42;14.60;;;;;;;2.51;100.00;101969.34;5022678;28;20032;-85
2022/01/23 06:41:45;;;;;;;28.48;13.05;;;;;;;2.53;100.00;101975.56;5024854;28;20475;-84
2022/01/23 06:44:11;;;;;;;30.35;14.40;;;;;;;2.54;100.00;101969.47;5023452;28;20030;-85
2022/01/23 06:46:39;;;;;;;27.02;13.43;;;;;;;2.51;100.00;101977.28;5014478;28;20061;-84
2022/01/23 06:49:05;;;;;;;27.63;12.98;;;;;;;2.45;100.00;101974.44;5017999;28;20024;-84
2022/01/23 06:51:30;;;;;;;32.83;13.07;;;;;;;2.46;100.00;101986.78;5018740;28;20022;-85
2022/01/23 06:53:58;;;;;;;31.48;14.15;;;;;;;2.47;100.00;101978.03;5015802;28;20105;-84
2022/01/23 06:56:24;;;;;;;30.27;13.90;;;;;;;2.60;100.00;101981.94;5014094;28;20033;-83
2022/01/23 06:58:49;;;;;;;29.40;14.45;;;;;;;2.62;100.00;101976.72;5016562;28;20022;-84
2022/01/23 07:01:15;;;;;;;26.98;14.05;;;;;;;2.42;100.00;101984.91;5021491;28;20026;-85
2022/01/23 07:03:41;;;;;;;29.40;13.90;;;;;;;2.40;100.00;101986.56;5023426;28;20030;-84
2022/01/23 07:06:06;;;;;;;26.42;13.10;;;;;;;2.39;100.00;101992.72;5022759;28;20044;-85
2022/01/23 07:08:32;;;;;;;31.05;13.27;;;;;;;2.36;100.00;101995.25;5027845;28;20048;-85
2022/01/23 07:10:57;;;;;;;28.23;13.32;;;;;;;2.37;100.00;101991.78;5028513;28;20379;-85
2022/01/23 07:13:23;;;;;;;25.10;13.60;;;;;;;2.42;100.00;101995.44;5029669;28;20018;-83
2022/01/23 07:15:48;;;;;;;25.90;13.73;;;;;;;2.42;100.00;101995.44;5029554;28;20022;-85
2022/01/23 07:18:15;;;;;;;31.83;14.77;;;;;;;2.36;100.00;102006.69;5029291;28;20030;-85
2022/01/23 07:20:41;;;;;;;26.27;14.13;;;;;;;2.32;100.00;102000.41;5028077;28;20053;-85
2022/01/23 07:23:07;;;;;;;29.98;14.00;;;;;;;2.33;100.00;102018.03;5027887;28;20021;-85
2022/01/23 07:25:32;;;;;;;32.58;14.38;;;;;;;2.30;100.00;102020.56;5025877;28;20018;-85
2022/01/23 07:27:59;;;;;;;32.60;14.45;;;;;;;2.31;100.00;102014.47;5026991;28;20053;-85
2022/01/23 07:30:39;;;;;;;33.47;14.20;;;;;;;2.34;100.00;102014.56;5021216;28;20022;-83
2022/01/23 07:33:04;;;;;;;27.02;12.98;;;;;;;2.42;100.00;102013.91;5016064;28;20026;-83
2022/01/23 07:35:30;;;;;;;27.30;13.80;;;;;;;2.45;100.00;102011.34;5016806;28;20037;-84
2022/01/23 07:37:55;;;;;;;28.00;13.45;;;;;;;2.55;100.00;102017.84;5017703;28;20463;-84
2022/01/23 07:40:21;;;;;;;31.95;13.48;;;;;;;2.48;100.00;102018.47;5017179;28;20083;-84
2022/01/23 07:42:46;;;;;;;32.20;14.13;;;;;;;2.52;100.00;102023.91;5019445;28;20116;-82
2022/01/23 07:45:12;;;;;;;30.55;14.75;;;;;;;2.47;100.00;102025.50;5016760;28;20030;-82
2022/01/23 07:47:37;;;;;;;31.50;13.82;;;;;;;2.48;100.00;102022.00;5016501;28;20025;-81
2022/01/23 07:50:06;;;;;;;28.15;13.13;;;;;;;2.52;100.00;102023.91;5016538;28;20068;-81
2022/01/23 07:52:35;;;;;;;28.73;13.35;;;;;;;2.54;100.00;102031.84;5017761;28;20394;-83
2022/01/23 07:55:05;;;;;;;27.52;14.05;;;;;;;2.60;100.00;102028.53;5018523;28;20046;-83
2022/01/23 07:57:47;;;;;;;28.40;13.43;;;;;;;2.63;100.00;102026.00;5017887;28;20025;-86
2022/01/23 08:00:22;;;;;;;29.27;13.93;;;;;;;2.66;100.00;102026.06;5015916;28;20017;-84
2022/01/23 08:02:47;;;;;;;36.72;14.02;;;;;;;2.63;100.00;102034.78;5016929;28;20491;-82
2022/01/23 08:05:13;;;;;;;26.48;12.80;;;;;;;2.61;100.00;102035.56;5016744;28;20032;-84
2022/01/23 08:07:38;;;;;;;28.45;13.50;;;;;;;2.63;100.00;102042.69;5016048;28;20095;-84
2022/01/23 08:10:07;;;;;;;26.52;13.93;;;;;;;2.63;100.00;102039.19;5016402;28;20084;-84
2022/01/23 08:12:33;;;;;;;26.85;13.63;;;;;;;2.61;100.00;102043.47;5016303;28;20053;-85
2022/01/23 08:14:59;;;;;;;27.77;14.07;;;;;;;2.61;100.00;102046.13;5016926;28;20030;-82
2022/01/23 08:17:26;;;;;;;29.98;13.95;;;;;;;2.70;100.00;102043.78;5015718;28;20022;-83
2022/01/23 08:19:52;;;;;;;33.60;14.57;;;;;;;2.66;100.00;102041.88;5017904;28;20030;-82
2022/01/23 08:22:19;;;;;;;31.45;15.27;;;;;;;2.65;100.00;102040.13;5016937;28;20037;-81
2022/01/23 08:24:44;;;;;;;30.83;15.05;;;;;;;2.86;100.00;102047.78;5016429;28;20486;-82
2022/01/23 08:27:09;;;;;;;30.17;14.38;;;;;;;2.79;100.00;102044.06;5016782;28;20030;-81
2022/01/23 08:29:35;;;;;;;26.63;13.23;;;;;;;2.83;100.00;102052.09;5015811;28;20112;-84
2022/01/23 08:32:00;;;;;;;29.00;14.30;;;;;;;2.84;100.00;102056.50;5015776;28;20069;-83
2022/01/23 08:34:26;;;;;;;28.13;14.07;;;;;;;2.75;100.00;102052.75;5015813;28;20541;-82
2022/01/23 08:36:55;;;;;;;27.45;13.40;;;;;;;2.90;100.00;102059.34;5015582;28;20029;-83
2022/01/23 08:39:22;;;;;;;25.35;12.98;;;;;;;2.85;100.00;102068.84;5016825;28;20028;-83
2022/01/23 08:41:50;;;;;;;28.52;13.68;;;;;;;2.83;100.00;102071.44;5016599;28;20493;-83
2022/01/23 08:44:19;;;;;;;28.15;13.30;;;;;;;2.93;100.00;102069.09;5018456;28;20014;-83
2022/01/23 08:46:45;;;;;;;25.42;13.45;;;;;;;3.00;100.00;102068.41;5016113;28;20026;-82
2022/01/23 08:49:11;;;;;;;29.05;14.07;;;;;;;2.92;100.00;102075.19;5016513;28;20022;-82
2022/01/23 08:51:36;;;;;;;27.83;13.48;;;;;;;3.05;100.00;102077.38;5015984;28;20438;-82
2022/01/23 08:54:03;;;;;;;26.42;12.98;;;;;;;3.00;100.00;102079.88;5018322;28;20029;-83
2022/01/23 08:56:29;;;;;;;27.10;13.20;;;;;;;3.03;100.00;102083.47;5016026;28;20076;-82
2022/01/23 08:58:54;;;;;;;33.28;14.73;;;;;;;3.12;100.00;102089.00;5016966;28;20076;-82
2022/01/23 09:01:19;;;;;;;32.95;15.35;;;;;;;3.03;100.00;102084.34;5017474;28;20033;-83
2022/01/23 09:03:45;;;;;;;30.15;15.35;;;;;;;3.06;100.00;102086.19;5018451;28;20088;-84
2022/01/23 09:06:10;;;;;;;29.70;14.52;;;;;;;3.09;100.00;102086.28;5016212;28;20104;-83
2022/01/23 09:08:38;;;;;;;26.40;13.65;;;;;;;3.07;100.00;102080.03;5017493;28;20079;-83
2022/01/23 09:11:10;;;;;;;27.75;13.85;;;;;;;3.08;100.00;102081.84;5017300;28;20033;-83
2022/01/23 09:16:10;;;;;;;24.48;12.27;;;;;;;3.34;100.00;102073.81;5016989;28;20073;-82
2022/01/23 09:18:35;;;;;;;23.65;11.80;;;;;;;3.18;100.00;102077.75;5020329;28;20021;-84
2022/01/23 09:21:01;;;;;;;24.63;11.73;;;;;;;3.19;100.00;102077.81;5022117;28;20037;-85
2022/01/23 09:23:26;;;;;;;23.42;11.88;;;;;;;3.24;100.00;102084.13;5016814;28;20060;-84
2022/01/23 09:25:52;;;;;;;21.52;11.63;;;;;;;3.24;100.00;102084.13;5016133;28;20068;-84
2022/01/23 09:28:19;;;;;;;24.27;12.45;;;;;;;3.38;100.00;102088.88;5016298;28;20389;-84
2022/01/23 09:30:49;;;;;;;27.25;13.02;;;;;;;3.42;100.00;102088.16;5015535;28;20116;-84
2022/01/23 09:33:16;;;;;;;23.77;12.55;;;;;;;3.44;100.00;102088.19;5015420;28;20032;-84
2022/01/23 09:35:41;;;;;;;26.08;12.63;;;;;;;3.47;100.00;102090.91;5014105;28;20030;-84
2022/01/23 09:38:07;;;;;;;26.15;12.07;;;;;;;3.32;100.00;102083.44;5014489;28;20125;-84
2022/01/23 09:40:41;;;;;;;22.85;12.45;;;;;;;3.56;100.00;102090.25;5071135;28;20375;-73
2022/01/23 09:43:12;;;;;;;22.77;11.05;;;;;;;3.43;100.00;102092.56;5069087;28;20032;-72
2022/01/23 09:45:38;;;;;;;22.70;11.10;;;;;;;3.65;100.00;102090.53;5070496;28;20025;-72
2022/01/23 09:48:04;;;;;;;24.33;11.27;;;;;;;3.58;100.00;102099.16;5070308;28;20099;-72
2022/01/23 09:50:31;;;;;;;21.17;10.98;;;;;;;3.61;100.00;102096.56;5070166;28;20075;-72
2022/01/23 09:52:58;;;;;;;21.48;10.73;;;;;;;3.72;100.00;102101.25;5070235;28;20397;-72
2022/01/23 09:55:25;;;;;;;23.08;11.57;;;;;;;3.80;100.00;102107.66;5070108;28;20048;-73
2022/01/23 09:57:51;;;;;;;22.02;10.80;;;;;;;3.75;100.00;102106.63;5070119;28;20027;-73
2022/01/23 10:00:20;;;;;;;19.67;9.88;;;;;;;3.94;100.00;102102.78;5069955;28;20021;-72
2022/01/23 10:02:50;;;;;;;20.10;11.05;;;;;;;3.89;100.00;102105.25;5068798;28;20548;-73
2022/01/23 10:05:16;;;;;;;18.92;9.43;;;;;;;3.95;100.00;102104.53;5070005;28;20075;-73
2022/01/23 10:07:42;;;;;;;18.45;9.65;;;;;;;3.95;100.00;102103.63;5069955;28;20033;-72
2022/01/23 10:10:14;;;;;;;19.55;9.93;;;;;;;4.16;100.00;102107.72;5069891;28;20021;-72
2022/01/23 10:12:41;;;;;;;18.55;9.27;;;;;;;4.17;100.00;102104.22;5068692;28;20481;-72
2022/01/23 10:15:08;;;;;;;15.73;8.35;;;;;;;4.19;100.00;102102.50;5068511;28;20025;-72
2022/01/23 10:17:34;;;;;;;15.45;8.48;;;;;;;4.16;100.00;102107.72;5069672;28;20465;-72
2022/01/23 10:20:00;;;;;;;17.00;8.75;;;;;;;4.18;100.00;102106.91;5069598;28;20095;-72
2022/01/23 10:22:25;;;;;;;18.33;8.68;;;;;;;4.21;100.00;102108.72;5069808;28;20044;-72
2022/01/23 10:24:51;;;;;;;17.50;8.65;;;;;;;4.08;100.00;102105.78;5069551;28;20028;-72
2022/01/23 10:27:17;;;;;;;16.05;8.65;;;;;;;4.23;100.00;102104.38;5069501;28;20162;-72
2022/01/23 10:29:46;;;;;;;15.27;7.95;;;;;;;4.34;100.00;102102.91;5069501;28;20040;-72
2022/01/23 10:32:20;;;;;;;15.32;7.55;;;;;;;4.28;100.00;102108.03;5069391;28;20504;-72
2022/01/23 10:34:55;;;;;;;17.17;7.70;;;;;;;4.30;100.00;102106.34;5069484;28;20056;-72
2022/01/23 10:37:43;;;;;;;15.40;8.02;;;;;;;4.44;100.00;102098.75;5068120;28;20020;-72
2022/01/23 10:40:21;;;;;;;16.27;8.30;;;;;;;4.33;100.00;102100.25;5067780;28;20073;-72
2022/01/23 10:48:38;;;;;;;14.77;6.75;;;;;;;4.47;100.00;102100.56;5069338;28;20040;-72
2022/01/23 10:51:17;;;;;;;13.68;6.90;;;;;;;4.36;100.00;102110.88;5061021;28;20107;-72
2022/01/23 10:54:04;;;;;;;15.40;6.05;;;;;;;4.38;100.00;102103.00;5055798;28;20024;-72
2022/01/23 10:56:52;;;;;;;13.45;6.60;;;;;;;4.45;100.00;102099.66;5055796;28;20029;-72
2022/01/23 10:59:17;;;;;;;11.02;6.53;;;;;;;4.53;100.00;102094.53;5046584;28;20104;-72
2022/01/23 11:02:01;;;;;;;13.55;6.90;;;;;;;4.55;100.00;102093.72;5052224;28;20120;-72
2022/01/23 11:04:26;;;;;;;13.10;6.97;;;;;;;4.52;100.00;102091.00;5054578;28;20528;-72
2022/01/23 11:07:02;;;;;;;11.65;6.20;;;;;;;4.70;100.00;102092.28;5053844;28;20025;-72
2022/01/23 11:09:36;;;;;;;11.55;6.22;;;;;;;4.84;100.00;102086.44;5054000;28;20021;-72
2022/01/23 11:12:13;;;;;;;11.27;6.18;;;;;;;4.81;100.00;102092.56;5053709;28;20083;-72
2022/01/23 11:17:26;;;;;;;10.25;5.68;;;;;;;4.86;100.00;102092.66;5054332;28;20187;-72
2022/01/23 11:19:55;;;;;;;12.95;5.85;;;;;;;4.75;100.00;102090.66;5055026;28;20025;-72
2022/01/23 11:22:23;;;;;;;12.00;6.03;;;;;;;4.76;100.00;102087.16;5054874;28;20492;-72
2022/01/23 11:24:49;;;;;;;9.63;5.80;;;;;;;4.74;100.00;102078.25;5055000;28;20031;-72
2022/01/23 11:27:17;;;;;;;11.93;5.90;;;;;;;4.87;100.00;102076.78;5055012;28;20021;-72
2022/01/23 11:29:57;;;;;;;12.95;7.10;;;;;;;4.90;100.00;102070.69;5053725;28;20401;-72
2022/01/23 11:32:25;;;;;;;12.57;6.07;;;;;;;4.89;100.00;102075.09;5054787;28;20025;-72
2022/01/23 11:34:58;;;;;;;9.05;5.43;;;;;;;5.20;100.00;102077.53;5054782;28;20025;-72
2022/01/23 11:37:23;;;;;;;12.07;6.30;;;;;;;5.07;100.00;102079.03;5054850;28;20108;-72
2022/01/23 11:39:55;;;;;;;12.75;6.63;;;;;;;5.16;100.00;102072.09;5053313;28;20105;-72
2022/01/23 11:51:07;;;;;;;11.60;6.30;;;;;;;5.45;100.00;102070.09;5054521;28;20063;-72
2022/01/23 11:53:51;;;;;;;11.15;5.82;;;;;;;5.43;100.00;102071.81;5054329;28;20124;-72
2022/01/23 11:56:45;;;;;;;13.40;6.50;;;;;;;5.47;100.00;102067.44;5054221;28;20021;-72
2022/01/23 11:59:34;;;;;;;10.77;6.05;;;;;;;5.29;100.00;102065.31;5054276;28;20115;-73
2022/01/23 12:02:20;;;;;;;10.20;5.22;;;;;;;5.42;100.00;102064.72;5079300;22;20035;-86
2022/01/23 12:05:15;;;;;;;11.10;6.38;;;;;;;5.56;100.00;102075.59;4995869;28;20042;-85
2022/01/23 12:07:43;;;;;;;12.45;6.35;;;;;;;5.57;100.00;102069.44;4994756;28;20030;-86
2022/01/23 12:10:31;;;;;;;10.57;5.75;;;;;;;5.51;100.00;102073.72;4994860;28;20361;-85
2022/01/23 12:18:43;;;;;;;;;;;;;;;5.57;100.00;102064.13;4996546;28;20054;-86
2022/01/23 12:21:27;;;;;;;9.27;5.68;;;;;;;5.30;100.00;102064.47;4994738;28;19914;-87
2022/01/23 12:24:04;;;;;;;10.45;5.78;;;;;;;5.45;100.00;102070.09;4995468;28;20425;-87
2022/01/23 12:26:29;;;;;;;9.13;5.60;;;;;;;5.43;100.00;102071.81;4993809;28;20495;-85
2022/01/23 12:28:55;;;;;;;9.50;6.00;;;;;;;5.30;100.00;102069.75;4994739;28;20027;-85
2022/01/23 12:31:24;;;;;;;9.70;5.40;;;;;;;5.45;100.00;102062.13;4994440;28;20027;-86
2022/01/23 12:34:00;;;;;;;9.20;5.35;;;;;;;5.38;100.00;102062.88;4994102;28;20026;-87
2022/01/23 12:36:32;;;;;;;8.07;4.80;;;;;;;5.48;100.00;102063.94;4993810;28;20022;-85
2022/01/23 12:39:06;;;;;;;9.32;5.03;;;;;;;5.20;100.00;102063.38;4996055;28;20022;-86
2022/01/23 12:41:43;;;;;;;12.27;5.28;;;;;;;5.17;100.00;102058.91;4995685;28;20387;-86
2022/01/23 12:44:33;;;;;;;9.07;5.00;;;;;;;5.23;100.00;102052.88;4994761;28;20049;-87
2022/01/23 12:47:01;;;;;;;9.95;5.50;;;;;;;5.24;100.00;102049.34;4997164;28;20495;-86
2022/01/23 12:49:35;;;;;;;10.23;6.20;;;;;;;5.28;100.00;102056.50;4996795;28;20025;-86
2022/01/23 12:52:09;;;;;;;;;;;;;;;5.37;100.00;102047.84;5000465;28;20100;-86
2022/01/23 12:54:52;;;;;;;8.20;5.10;;;;;;;5.33;100.00;102043.34;4996227;28;20270;-86
2022/01/23 12:57:22;;;;;;;9.55;4.80;;;;;;;5.45;100.00;102042.69;4995872;28;20022;-87
2022/01/23 12:59:53;;;;;;;7.72;4.75;;;;;;;5.41;100.00;102047.03;4995260;28;20018;-85
2022/01/23 13:03:13;;;;;;;13.50;5.38;;;;;;;5.32;100.00;102052.16;4995602;28;20023;-84
2022/01/23 13:05:46;;;;;;;8.45;4.63;;;;;;;5.43;100.00;102041.78;4992396;28;20054;-85
2022/01/23 13:08:33;;;;;;;9.30;4.53;;;;;;;5.32;100.00;102046.84;4995193;28;20395;-84
2022/01/23 13:11:45;;;;;;;6.22;3.70;;;;;;;5.28;100.00;102050.31;4996740;28;20058;-84
2022/01/23 13:14:04;;;;;;;5.85;3.53;;;;;;;5.49;100.00;102044.53;4999118;28;20026;-84
2022/01/23 13:16:37;;;;;;;6.47;3.85;;;;;;;5.34;100.00;102050.41;4999398;28;20026;-84
2022/01/23 13:31:31;;;;;;;9.45;5.13;;;;;;;5.27;100.00;102053.81;4996157;28;20500;-86
2022/01/23 13:33:57;;;;;;;8.70;5.38;;;;;;;5.24;100.00;102049.34;5001690;28;20129;-83
2022/01/23 13:36:22;;;;;;;11.07;6.55;;;;;;;5.14;100.00;102056.19;5001237;28;20113;-85
2022/01/23 13:39:06;;;;;;;12.25;6.75;;;;;;;5.25;100.00;102052.03;4997603;28;20033;-83
2022/01/23 13:41:45;;;;;;;11.93;7.05;;;;;;;5.13;100.00;102057.94;5001182;28;20483;-84
2022/01/23 13:51:07;;;;;;;13.60;7.63;;;;;;;5.18;100.00;102050.09;4976729;28;20095;-84
2022/01/23 13:52:46;;;;;;;12.50;7.75;;;;;;;5.12;100.00;102052.63;5001782;28;20073;-85
2022/01/23 14:00:41;;;;;;;10.02;6.03;;;;;;;4.95;100.00;102039.91;5002943;28;20081;-85
2022/01/23 14:03:08;;;;;;;11.95;6.15;;;;;;;4.95;100.00;102052.28;5001571;28;20086;-85
2022/01/23 14:05:34;;;;;;;9.70;5.80;;;;;;;5.04;100.00;102052.47;5001194;28;20538;-85
2022/01/23 14:08:02;;;;;;;11.90;7.40;;;;;;;5.08;100.00;102046.34;5002039;28;20030;-85
2022/01/23 14:10:27;;;;;;;12.27;7.03;;;;;;;4.97;100.00;102043.50;5001750;28;20022;-84
2022/01/23 14:13:03;;;;;;;10.38;6.50;;;;;;;5.03;100.00;102048.00;4997981;28;20037;-85
2022/01/23 14:15:28;;;;;;;12.18;7.32;;;;;;;5.02;100.00;102044.50;4994661;28;20467;-85
2022/01/23 14:18:09;;;;;;;11.20;7.10;;;;;;;4.99;100.00;102047.06;4998338;28;20022;-84
2022/01/23 14:20:41;;;;;;;12.82;7.90;;;;;;;4.99;100.00;102044.44;4998867;28;20023;-85
2022/01/23 14:23:25;;;;;;;16.88;7.80;;;;;;;4.89;100.00;102038.03;4999715;28;20094;-85
2022/01/23 14:25:58;;;;;;;12.25;7.47;;;;;;;4.98;100.00;102042.63;5001379;28;20104;-84
2022/01/23 14:28:44;;;;;;;14.45;7.03;;;;;;;5.08;100.00;102046.34;5001167;28;20061;-85
2022/01/23 14:31:17;;;;;;;12.63;8.32;;;;;;;5.13;100.00;102044.72;5005374;28;20026;-86